Terminal Aerodrome Forecast
Issued by NWS

Home | Current Version | Previous Version | Text Only | Print | Product List | Glossary On
Versions: 1 2 3 4 5 6 7 8 9 10 11 12 13 14 15 16 17
000
FTUS43 KAPX 222116 AAA
TAFMBL
TAF AMD
KMBL 222116Z 2221/2318 23007KT 2SM BR OVC005 WS016/24032KT
     FM230000 20003KT 2SM BR OVC003 WS014/24031KT
     FM230900 18006KT 3SM -RA BR OVC006 WS008/23032KT
      AMD LTD TO CLD VIS AND WIND=

USA.gov is the U.S. government's official web portal to all federal, state and local government web resources and services.